Terminal Aerodrome Forecast
Issued by NWS

Home | Current Version | Previous Version | Text Only | Print | Product List | Glossary On
Versions: 1 2 3 4 5 6 7 8 9 10 11 12 13 14 15 16 17 18 19 20 21
000
FTUS41 KBOX 242336 AAE
TAFBAF
TAF AMD
KBAF 242336Z 2500/2524 01008KT P6SM VCSH SCT007 OVC012
     FM250600 VRB03KT 6SM BR VCSH OVC008
     FM251100 VRB03KT P6SM OVC010
     FM251900 01005KT P6SM SCT012 BKN020=

USA.gov is the U.S. government's official web portal to all federal, state and local government web resources and services.